sensor_id;sensor_type;location;lat;lon;timestamp;temperature;humidity
45237;DHT22;30973;51.442;3.580;2022-08-25T00:00:12;24.70;99.90
45237;DHT22;30973;51.442;3.580;2022-08-25T00:02:39;24.70;99.90
45237;DHT22;30973;51.442;3.580;2022-08-25T00:05:26;24.70;99.90
45237;DHT22;30973;51.442;3.580;2022-08-25T00:07:55;24.70;99.90
45237;DHT22;30973;51.442;3.580;2022-08-25T00:10:23;24.70;99.90
45237;DHT22;30973;51.442;3.580;2022-08-25T00:12:50;24.70;99.90
45237;DHT22;30973;51.442;3.580;2022-08-25T00:15:17;24.70;99.90
45237;DHT22;30973;51.442;3.580;2022-08-25T00:17:45;24.60;99.90
45237;DHT22;30973;51.442;3.580;2022-08-25T00:20:12;24.50;99.90
45237;DHT22;30973;51.442;3.580;2022-08-25T00:22:39;24.50;99.90
45237;DHT22;30973;51.442;3.580;2022-08-25T00:25:07;24.50;99.90
45237;DHT22;30973;51.442;3.580;2022-08-25T00:27:35;24.50;99.90
45237;DHT22;30973;51.442;3.580;2022-08-25T00:30:04;24.50;99.90
45237;DHT22;30973;51.442;3.580;2022-08-25T00:32:31;24.50;99.90
45237;DHT22;30973;51.442;3.580;2022-08-25T00:34:59;24.50;99.90
45237;DHT22;30973;51.442;3.580;2022-08-25T00:37:26;24.40;99.90
45237;DHT22;30973;51.442;3.580;2022-08-25T00:39:54;24.40;99.90
45237;DHT22;30973;51.442;3.580;2022-08-25T00:42:24;24.40;99.90
45237;DHT22;30973;51.442;3.580;2022-08-25T00:44:51;24.30;99.90
45237;DHT22;30973;51.442;3.580;2022-08-25T00:47:19;24.30;99.90
45237;DHT22;30973;51.442;3.580;2022-08-25T00:49:55;24.30;99.90
45237;DHT22;30973;51.442;3.580;2022-08-25T00:52:48;24.30;99.90
45237;DHT22;30973;51.442;3.580;2022-08-25T00:55:45;24.30;99.90
45237;DHT22;30973;51.442;3.580;2022-08-25T00:58:17;24.30;99.90
45237;DHT22;30973;51.442;3.580;2022-08-25T01:00:48;24.20;99.90
45237;DHT22;30973;51.442;3.580;2022-08-25T01:03:17;24.20;99.90
45237;DHT22;30973;51.442;3.580;2022-08-25T01:05:46;24.20;99.90
45237;DHT22;30973;51.442;3.580;2022-08-25T01:08:14;24.20;99.90
45237;DHT22;30973;51.442;3.580;2022-08-25T01:10:43;24.20;99.90
45237;DHT22;30973;51.442;3.580;2022-08-25T01:13:48;24.20;99.90
45237;DHT22;30973;51.442;3.580;2022-08-25T01:16:17;24.20;99.90
45237;DHT22;30973;51.442;3.580;2022-08-25T01:18:46;24.20;99.90
45237;DHT22;30973;51.442;3.580;2022-08-25T01:21:15;24.10;99.90
45237;DHT22;30973;51.442;3.580;2022-08-25T01:23:45;24.20;99.90
45237;DHT22;30973;51.442;3.580;2022-08-25T01:26:16;24.20;99.90
45237;DHT22;30973;51.442;3.580;2022-08-25T01:28:48;24.20;99.90
45237;DHT22;30973;51.442;3.580;2022-08-25T01:31:37;24.20;99.90
45237;DHT22;30973;51.442;3.580;2022-08-25T01:34:06;24.20;99.90
45237;DHT22;30973;51.442;3.580;2022-08-25T01:36:34;24.20;99.90
45237;DHT22;30973;51.442;3.580;2022-08-25T01:39:03;24.20;99.90
45237;DHT22;30973;51.442;3.580;2022-08-25T01:44:02;24.20;99.90
45237;DHT22;30973;51.442;3.580;2022-08-25T01:46:34;24.20;99.90
45237;DHT22;30973;51.442;3.580;2022-08-25T01:49:03;24.20;99.90
45237;DHT22;30973;51.442;3.580;2022-08-25T01:51:41;24.20;99.90
45237;DHT22;30973;51.442;3.580;2022-08-25T01:54:09;24.20;99.90
45237;DHT22;30973;51.442;3.580;2022-08-25T01:56:36;24.20;99.90
45237;DHT22;30973;51.442;3.580;2022-08-25T01:59:04;24.20;99.90
45237;DHT22;30973;51.442;3.580;2022-08-25T02:01:32;24.20;99.90
45237;DHT22;30973;51.442;3.580;2022-08-25T02:03:59;24.10;99.90
45237;DHT22;30973;51.442;3.580;2022-08-25T02:06:30;24.10;99.90
45237;DHT22;30973;51.442;3.580;2022-08-25T02:09:04;24.10;99.90
45237;DHT22;30973;51.442;3.580;2022-08-25T02:11:34;24.10;99.90
45237;DHT22;30973;51.442;3.580;2022-08-25T02:14:01;24.10;99.90
45237;DHT22;30973;51.442;3.580;2022-08-25T02:16:32;24.20;99.90
45237;DHT22;30973;51.442;3.580;2022-08-25T02:19:00;24.10;99.90
45237;DHT22;30973;51.442;3.580;2022-08-25T02:21:27;24.20;99.90
45237;DHT22;30973;51.442;3.580;2022-08-25T02:23:55;24.10;99.90
45237;DHT22;30973;51.442;3.580;2022-08-25T02:26:22;24.10;99.90
45237;DHT22;30973;51.442;3.580;2022-08-25T02:28:51;24.10;99.90
45237;DHT22;30973;51.442;3.580;2022-08-25T02:31:21;24.10;99.90
45237;DHT22;30973;51.442;3.580;2022-08-25T02:33:49;24.10;99.90
45237;DHT22;30973;51.442;3.580;2022-08-25T02:36:16;24.10;99.90
45237;DHT22;30973;51.442;3.580;2022-08-25T02:38:44;24.10;99.90
45237;DHT22;30973;51.442;3.580;2022-08-25T02:41:17;24.00;99.90
45237;DHT22;30973;51.442;3.580;2022-08-25T02:43:46;24.10;99.90
45237;DHT22;30973;51.442;3.580;2022-08-25T02:46:17;24.10;99.90
45237;DHT22;30973;51.442;3.580;2022-08-25T02:48:46;24.10;99.90
45237;DHT22;30973;51.442;3.580;2022-08-25T02:51:14;24.10;99.90
45237;DHT22;30973;51.442;3.580;2022-08-25T02:53:41;24.10;99.90
45237;DHT22;30973;51.442;3.580;2022-08-25T02:56:13;24.10;99.90
45237;DHT22;30973;51.442;3.580;2022-08-25T02:58:41;24.00;99.90
45237;DHT22;30973;51.442;3.580;2022-08-25T03:01:09;24.10;99.90
45237;DHT22;30973;51.442;3.580;2022-08-25T03:03:39;24.10;99.90
45237;DHT22;30973;51.442;3.580;2022-08-25T03:06:11;24.00;99.90
45237;DHT22;30973;51.442;3.580;2022-08-25T03:08:39;24.00;99.90
45237;DHT22;30973;51.442;3.580;2022-08-25T03:11:08;24.00;99.90
45237;DHT22;30973;51.442;3.580;2022-08-25T03:13:36;24.00;99.90
45237;DHT22;30973;51.442;3.580;2022-08-25T03:16:05;24.00;99.90
45237;DHT22;30973;51.442;3.580;2022-08-25T03:18:38;23.90;99.90
45237;DHT22;30973;51.442;3.580;2022-08-25T03:21:07;23.90;99.90
45237;DHT22;30973;51.442;3.580;2022-08-25T03:23:34;23.90;99.90
45237;DHT22;30973;51.442;3.580;2022-08-25T03:26:01;23.90;99.90
45237;DHT22;30973;51.442;3.580;2022-08-25T03:28:47;23.90;99.90
45237;DHT22;30973;51.442;3.580;2022-08-25T03:31:14;23.90;99.90
45237;DHT22;30973;51.442;3.580;2022-08-25T03:33:42;23.90;99.90
45237;DHT22;30973;51.442;3.580;2022-08-25T03:36:09;23.90;99.90
45237;DHT22;30973;51.442;3.580;2022-08-25T03:38:40;23.90;99.90
45237;DHT22;30973;51.442;3.580;2022-08-25T03:41:16;23.90;99.90
45237;DHT22;30973;51.442;3.580;2022-08-25T03:43:44;23.90;99.90
45237;DHT22;30973;51.442;3.580;2022-08-25T03:46:19;23.90;99.90
45237;DHT22;30973;51.442;3.580;2022-08-25T03:48:48;23.90;99.90
45237;DHT22;30973;51.442;3.580;2022-08-25T03:51:24;24.10;99.90
45237;DHT22;30973;51.442;3.580;2022-08-25T03:53:52;23.90;99.90
45237;DHT22;30973;51.442;3.580;2022-08-25T03:56:19;24.00;99.90
45237;DHT22;30973;51.442;3.580;2022-08-25T03:58:47;23.90;99.90
45237;DHT22;30973;51.442;3.580;2022-08-25T04:01:15;23.90;99.90
45237;DHT22;30973;51.442;3.580;2022-08-25T04:03:44;23.90;99.90
45237;DHT22;30973;51.442;3.580;2022-08-25T06:35:19;24.80;99.90
45237;DHT22;30973;51.442;3.580;2022-08-25T06:37:46;25.40;99.90
45237;DHT22;30973;51.442;3.580;2022-08-25T06:40:14;26.20;99.90
45237;DHT22;30973;51.442;3.580;2022-08-25T06:42:47;26.90;99.90
45237;DHT22;30973;51.442;3.580;2022-08-25T06:45:16;27.50;99.30
45237;DHT22;30973;51.442;3.580;2022-08-25T06:47:44;28.00;98.80
45237;DHT22;30973;51.442;3.580;2022-08-25T06:50:11;28.30;97.70
45237;DHT22;30973;51.442;3.580;2022-08-25T06:52:38;28.60;97.50
45237;DHT22;30973;51.442;3.580;2022-08-25T06:55:06;29.00;97.30
45237;DHT22;30973;51.442;3.580;2022-08-25T06:57:33;29.20;97.00
45237;DHT22;30973;51.442;3.580;2022-08-25T07:00:05;29.30;96.60
45237;DHT22;30973;51.442;3.580;2022-08-25T07:02:34;29.90;97.10
45237;DHT22;30973;51.442;3.580;2022-08-25T07:05:02;30.60;96.70
45237;DHT22;30973;51.442;3.580;2022-08-25T07:07:31;31.00;95.60
45237;DHT22;30973;51.442;3.580;2022-08-25T07:10:10;31.20;93.90
45237;DHT22;30973;51.442;3.580;2022-08-25T07:12:39;30.60;93.70
45237;DHT22;30973;51.442;3.580;2022-08-25T07:15:06;30.20;94.00
45237;DHT22;30973;51.442;3.580;2022-08-25T07:17:46;29.70;94.10
45237;DHT22;30973;51.442;3.580;2022-08-25T07:20:15;29.30;94.60
45237;DHT22;30973;51.442;3.580;2022-08-25T07:22:46;28.80;94.10
45237;DHT22;30973;51.442;3.580;2022-08-25T07:25:14;28.50;94.90
45237;DHT22;30973;51.442;3.580;2022-08-25T07:27:44;28.30;95.50
45237;DHT22;30973;51.442;3.580;2022-08-25T07:30:11;28.10;95.50
45237;DHT22;30973;51.442;3.580;2022-08-25T07:32:39;27.90;95.40
45237;DHT22;30973;51.442;3.580;2022-08-25T07:35:09;27.80;95.80
45237;DHT22;30973;51.442;3.580;2022-08-25T07:37:48;27.70;95.90
45237;DHT22;30973;51.442;3.580;2022-08-25T07:40:21;27.70;96.30
45237;DHT22;30973;51.442;3.580;2022-08-25T07:42:52;27.70;96.20
45237;DHT22;30973;51.442;3.580;2022-08-25T07:45:22;27.70;96.40
45237;DHT22;30973;51.442;3.580;2022-08-25T07:50:28;27.60;96.40
45237;DHT22;30973;51.442;3.580;2022-08-25T07:52:57;27.70;96.80
45237;DHT22;30973;51.442;3.580;2022-08-25T07:55:27;27.60;96.60
45237;DHT22;30973;51.442;3.580;2022-08-25T07:57:54;27.70;96.90
45237;DHT22;30973;51.442;3.580;2022-08-25T08:00:25;27.70;96.60
45237;DHT22;30973;51.442;3.580;2022-08-25T08:02:54;27.70;96.80
45237;DHT22;30973;51.442;3.580;2022-08-25T08:05:22;27.80;97.10
45237;DHT22;30973;51.442;3.580;2022-08-25T08:07:51;27.90;96.40
45237;DHT22;30973;51.442;3.580;2022-08-25T08:10:19;28.00;96.70
45237;DHT22;30973;51.442;3.580;2022-08-25T08:13:07;28.10;96.60
45237;DHT22;30973;51.442;3.580;2022-08-25T08:15:36;28.10;95.90
45237;DHT22;30973;51.442;3.580;2022-08-25T08:18:04;28.20;95.70
45237;DHT22;30973;51.442;3.580;2022-08-25T08:20:33;28.20;95.50
45237;DHT22;30973;51.442;3.580;2022-08-25T08:23:10;28.20;95.30
45237;DHT22;30973;51.442;3.580;2022-08-25T08:25:37;28.30;95.50
45237;DHT22;30973;51.442;3.580;2022-08-25T08:28:06;28.40;95.60
45237;DHT22;30973;51.442;3.580;2022-08-25T08:30:34;28.50;95.40
45237;DHT22;30973;51.442;3.580;2022-08-25T08:33:03;28.50;95.40
45237;DHT22;30973;51.442;3.580;2022-08-25T08:35:36;28.70;95.30
45237;DHT22;30973;51.442;3.580;2022-08-25T08:38:04;28.80;94.70
45237;DHT22;30973;51.442;3.580;2022-08-25T08:40:49;28.90;94.90
45237;DHT22;30973;51.442;3.580;2022-08-25T08:43:53;28.90;94.90
45237;DHT22;30973;51.442;3.580;2022-08-25T08:46:34;29.00;94.30
45237;DHT22;30973;51.442;3.580;2022-08-25T08:49:06;29.00;94.80
45237;DHT22;30973;51.442;3.580;2022-08-25T08:51:46;29.10;94.30
45237;DHT22;30973;51.442;3.580;2022-08-25T08:54:22;29.20;94.30
45237;DHT22;30973;51.442;3.580;2022-08-25T08:57:11;29.30;94.60
45237;DHT22;30973;51.442;3.580;2022-08-25T08:59:59;29.40;93.80
45237;DHT22;30973;51.442;3.580;2022-08-25T09:02:41;29.50;93.80
45237;DHT22;30973;51.442;3.580;2022-08-25T09:05:20;29.60;94.30
45237;DHT22;30973;51.442;3.580;2022-08-25T09:08:10;29.80;94.30
45237;DHT22;30973;51.442;3.580;2022-08-25T09:20:08;30.40;91.80
45237;DHT22;30973;51.442;3.580;2022-08-25T09:28:40;30.80;92.30
45237;DHT22;30973;51.442;3.580;2022-08-25T09:31:21;30.90;92.60
45237;DHT22;30973;51.442;3.580;2022-08-25T09:33:57;31.10;91.80
45237;DHT22;30973;51.442;3.580;2022-08-25T09:36:26;31.20;91.30
45237;DHT22;30973;51.442;3.580;2022-08-25T09:38:53;31.30;91.30
45237;DHT22;30973;51.442;3.580;2022-08-25T09:47:00;30.90;90.00
45237;DHT22;30973;51.442;3.580;2022-08-25T09:49:35;30.80;89.70
45237;DHT22;30973;51.442;3.580;2022-08-25T09:52:22;30.70;90.50
45237;DHT22;30973;51.442;3.580;2022-08-25T09:54:52;30.50;90.40
45237;DHT22;30973;51.442;3.580;2022-08-25T09:57:47;30.40;89.80
45237;DHT22;30973;51.442;3.580;2022-08-25T10:00:30;30.30;88.20
45237;DHT22;30973;51.442;3.580;2022-08-25T10:03:03;30.30;90.30
45237;DHT22;30973;51.442;3.580;2022-08-25T10:05:33;30.30;89.40
45237;DHT22;30973;51.442;3.580;2022-08-25T10:08:10;30.30;89.40
45237;DHT22;30973;51.442;3.580;2022-08-25T10:10:53;30.50;90.10
45237;DHT22;30973;51.442;3.580;2022-08-25T10:13:41;30.40;88.90
45237;DHT22;30973;51.442;3.580;2022-08-25T10:16:22;30.30;88.60
45237;DHT22;30973;51.442;3.580;2022-08-25T10:19:08;30.40;89.50
45237;DHT22;30973;51.442;3.580;2022-08-25T10:21:38;30.50;88.40
45237;DHT22;30973;51.442;3.580;2022-08-25T10:24:07;30.60;88.40
45237;DHT22;30973;51.442;3.580;2022-08-25T10:27:02;30.60;88.00
45237;DHT22;30973;51.442;3.580;2022-08-25T10:29:50;30.50;88.00
45237;DHT22;30973;51.442;3.580;2022-08-25T10:35:17;30.10;88.40
45237;DHT22;30973;51.442;3.580;2022-08-25T10:49:54;30.00;90.70
45237;DHT22;30973;51.442;3.580;2022-08-25T10:52:43;30.00;90.90
45237;DHT22;30973;51.442;3.580;2022-08-25T10:57:58;30.00;91.70
45237;DHT22;30973;51.442;3.580;2022-08-25T11:00:39;30.00;92.10
45237;DHT22;30973;51.442;3.580;2022-08-25T11:03:31;30.20;92.30
45237;DHT22;30973;51.442;3.580;2022-08-25T11:06:07;30.30;92.40
45237;DHT22;30973;51.442;3.580;2022-08-25T11:08:52;30.20;92.60
45237;DHT22;30973;51.442;3.580;2022-08-25T11:11:31;30.30;92.60
45237;DHT22;30973;51.442;3.580;2022-08-25T11:16:46;30.40;92.20
45237;DHT22;30973;51.442;3.580;2022-08-25T11:19:34;30.40;92.50
45237;DHT22;30973;51.442;3.580;2022-08-25T11:25:18;30.60;92.50
45237;DHT22;30973;51.442;3.580;2022-08-25T11:30:24;30.50;92.00
45237;DHT22;30973;51.442;3.580;2022-08-25T11:32:53;30.40;92.20
45237;DHT22;30973;51.442;3.580;2022-08-25T11:50:07;31.40;92.30
45237;DHT22;30973;51.442;3.580;2022-08-25T11:52:45;31.60;92.20
45237;DHT22;30973;51.442;3.580;2022-08-25T11:55:18;31.80;91.80
45237;DHT22;30973;51.442;3.580;2022-08-25T11:57:52;31.90;91.20
45237;DHT22;30973;51.442;3.580;2022-08-25T12:00:41;32.00;91.50
45237;DHT22;30973;51.442;3.580;2022-08-25T12:06:27;32.20;91.00
45237;DHT22;30973;51.442;3.580;2022-08-25T12:11:48;32.00;91.20
45237;DHT22;30973;51.442;3.580;2022-08-25T12:14:35;32.10;91.30
45237;DHT22;30973;51.442;3.580;2022-08-25T12:17:08;32.20;91.60
45237;DHT22;30973;51.442;3.580;2022-08-25T12:38:30;32.00;91.80
45237;DHT22;30973;51.442;3.580;2022-08-25T12:43:36;32.10;91.60
45237;DHT22;30973;51.442;3.580;2022-08-25T12:49:09;32.20;91.70
45237;DHT22;30973;51.442;3.580;2022-08-25T12:51:52;32.20;91.80
45237;DHT22;30973;51.442;3.580;2022-08-25T12:57:38;32.30;91.20
45237;DHT22;30973;51.442;3.580;2022-08-25T13:00:18;32.20;91.20
45237;DHT22;30973;51.442;3.580;2022-08-25T13:03:25;32.10;91.30
45237;DHT22;30973;51.442;3.580;2022-08-25T13:06:29;32.00;91.20
45237;DHT22;30973;51.442;3.580;2022-08-25T13:09:30;32.00;91.30
45237;DHT22;30973;51.442;3.580;2022-08-25T13:12:32;32.00;91.30
45237;DHT22;30973;51.442;3.580;2022-08-25T13:15:04;32.00;91.40
45237;DHT22;30973;51.442;3.580;2022-08-25T13:17:35;31.90;91.10
45237;DHT22;30973;51.442;3.580;2022-08-25T13:20:21;31.90;91.20
45237;DHT22;30973;51.442;3.580;2022-08-25T13:22:51;31.80;91.20
45237;DHT22;30973;51.442;3.580;2022-08-25T13:25:29;31.80;91.50
45237;DHT22;30973;51.442;3.580;2022-08-25T13:28:03;31.90;91.30
45237;DHT22;30973;51.442;3.580;2022-08-25T13:30:34;31.80;91.40
45237;DHT22;30973;51.442;3.580;2022-08-25T13:33:19;31.70;91.40
45237;DHT22;30973;51.442;3.580;2022-08-25T13:35:49;31.50;91.40
45237;DHT22;30973;51.442;3.580;2022-08-25T13:38:38;31.40;91.50
45237;DHT22;30973;51.442;3.580;2022-08-25T13:41:06;31.30;91.60
45237;DHT22;30973;51.442;3.580;2022-08-25T13:43:37;31.30;91.60
45237;DHT22;30973;51.442;3.580;2022-08-25T13:46:05;31.20;91.50
45237;DHT22;30973;51.442;3.580;2022-08-25T13:48:38;31.20;91.70
45237;DHT22;30973;51.442;3.580;2022-08-25T13:54:02;30.90;91.50
45237;DHT22;30973;51.442;3.580;2022-08-25T13:56:40;30.70;91.60
45237;DHT22;30973;51.442;3.580;2022-08-25T13:59:25;30.40;91.70
45237;DHT22;30973;51.442;3.580;2022-08-25T14:01:55;30.10;91.90
45237;DHT22;30973;51.442;3.580;2022-08-25T14:10:05;29.80;92.30
45237;DHT22;30973;51.442;3.580;2022-08-25T14:12:43;29.60;92.50
45237;DHT22;30973;51.442;3.580;2022-08-25T14:15:25;29.40;92.50
45237;DHT22;30973;51.442;3.580;2022-08-25T14:18:17;29.20;92.80
45237;DHT22;30973;51.442;3.580;2022-08-25T14:20:48;29.20;92.90
45237;DHT22;30973;51.442;3.580;2022-08-25T14:23:21;29.20;92.90
45237;DHT22;30973;51.442;3.580;2022-08-25T14:25:51;29.20;93.10
45237;DHT22;30973;51.442;3.580;2022-08-25T14:28:21;29.20;93.00
45237;DHT22;30973;51.442;3.580;2022-08-25T14:30:52;29.10;93.00
45237;DHT22;30973;51.442;3.580;2022-08-25T14:33:27;29.00;93.00
45237;DHT22;30973;51.442;3.580;2022-08-25T14:35:57;29.00;93.10
45237;DHT22;30973;51.442;3.580;2022-08-25T14:38:25;28.90;93.20
45237;DHT22;30973;51.442;3.580;2022-08-25T14:40:53;28.90;93.40
45237;DHT22;30973;51.442;3.580;2022-08-25T14:43:25;28.90;93.50
45237;DHT22;30973;51.442;3.580;2022-08-25T14:45:59;28.90;93.40
45237;DHT22;30973;51.442;3.580;2022-08-25T14:48:40;28.90;93.40
45237;DHT22;30973;51.442;3.580;2022-08-25T14:51:10;28.80;93.30
45237;DHT22;30973;51.442;3.580;2022-08-25T14:53:39;28.80;93.30
45237;DHT22;30973;51.442;3.580;2022-08-25T14:56:07;28.80;93.30
45237;DHT22;30973;51.442;3.580;2022-08-25T14:58:37;28.80;93.20
45237;DHT22;30973;51.442;3.580;2022-08-25T15:01:19;28.80;93.10
45237;DHT22;30973;51.442;3.580;2022-08-25T15:04:17;28.70;92.90
45237;DHT22;30973;51.442;3.580;2022-08-25T15:06:48;28.60;92.70
45237;DHT22;30973;51.442;3.580;2022-08-25T15:09:17;28.60;92.70
45237;DHT22;30973;51.442;3.580;2022-08-25T15:11:48;28.60;92.50
45237;DHT22;30973;51.442;3.580;2022-08-25T15:14:19;28.60;92.60
45237;DHT22;30973;51.442;3.580;2022-08-25T15:17:00;28.70;93.00
45237;DHT22;30973;51.442;3.580;2022-08-25T15:19:27;28.60;92.60
45237;DHT22;30973;51.442;3.580;2022-08-25T15:21:55;28.60;92.40
45237;DHT22;30973;51.442;3.580;2022-08-25T15:24:26;28.50;92.30
45237;DHT22;30973;51.442;3.580;2022-08-25T15:26:56;28.40;92.30
45237;DHT22;30973;51.442;3.580;2022-08-25T15:29:26;28.30;92.50
45237;DHT22;30973;51.442;3.580;2022-08-25T15:31:56;28.20;92.60
45237;DHT22;30973;51.442;3.580;2022-08-25T15:34:23;28.20;92.70
45237;DHT22;30973;51.442;3.580;2022-08-25T15:36:51;28.20;93.10
45237;DHT22;30973;51.442;3.580;2022-08-25T15:39:19;28.20;92.70
45237;DHT22;30973;51.442;3.580;2022-08-25T15:41:47;28.20;92.80
45237;DHT22;30973;51.442;3.580;2022-08-25T15:44:18;28.20;92.80
45237;DHT22;30973;51.442;3.580;2022-08-25T15:46:45;28.20;92.70
45237;DHT22;30973;51.442;3.580;2022-08-25T15:49:17;28.10;92.80
45237;DHT22;30973;51.442;3.580;2022-08-25T15:51:51;28.10;92.90
45237;DHT22;30973;51.442;3.580;2022-08-25T15:54:21;28.10;92.80
45237;DHT22;30973;51.442;3.580;2022-08-25T15:56:49;28.00;92.60
45237;DHT22;30973;51.442;3.580;2022-08-25T15:59:18;27.80;92.50
45237;DHT22;30973;51.442;3.580;2022-08-25T16:01:48;27.70;92.40
45237;DHT22;30973;51.442;3.580;2022-08-25T16:04:21;27.60;92.50
45237;DHT22;30973;51.442;3.580;2022-08-25T16:06:49;27.50;92.50
45237;DHT22;30973;51.442;3.580;2022-08-25T16:09:18;27.40;92.60
45237;DHT22;30973;51.442;3.580;2022-08-25T16:11:50;27.40;92.70
45237;DHT22;30973;51.442;3.580;2022-08-25T16:14:25;27.30;92.80
45237;DHT22;30973;51.442;3.580;2022-08-25T16:16:54;27.20;92.90
45237;DHT22;30973;51.442;3.580;2022-08-25T16:19:27;27.10;93.10
45237;DHT22;30973;51.442;3.580;2022-08-25T16:21:54;27.00;93.20
45237;DHT22;30973;51.442;3.580;2022-08-25T16:24:22;26.90;93.30
45237;DHT22;30973;51.442;3.580;2022-08-25T16:26:50;26.80;93.40
45237;DHT22;30973;51.442;3.580;2022-08-25T16:29:18;26.80;93.50
45237;DHT22;30973;51.442;3.580;2022-08-25T16:31:46;26.70;93.50
45237;DHT22;30973;51.442;3.580;2022-08-25T16:34:19;26.60;93.80
45237;DHT22;30973;51.442;3.580;2022-08-25T16:36:46;26.60;93.80
45237;DHT22;30973;51.442;3.580;2022-08-25T16:39:18;26.50;93.90
45237;DHT22;30973;51.442;3.580;2022-08-25T16:41:47;26.50;94.00
45237;DHT22;30973;51.442;3.580;2022-08-25T16:44:19;26.40;94.20
45237;DHT22;30973;51.442;3.580;2022-08-25T16:46:49;26.40;94.20
45237;DHT22;30973;51.442;3.580;2022-08-25T16:49:21;26.30;94.60
45237;DHT22;30973;51.442;3.580;2022-08-25T16:51:51;26.30;94.50
45237;DHT22;30973;51.442;3.580;2022-08-25T16:54:24;26.30;94.60
45237;DHT22;30973;51.442;3.580;2022-08-25T16:57:11;26.30;94.90
45237;DHT22;30973;51.442;3.580;2022-08-25T16:59:39;26.30;94.70
45237;DHT22;30973;51.442;3.580;2022-08-25T17:02:07;26.30;94.80
45237;DHT22;30973;51.442;3.580;2022-08-25T17:04:34;26.30;94.70
45237;DHT22;30973;51.442;3.580;2022-08-25T17:07:03;26.30;94.90
45237;DHT22;30973;51.442;3.580;2022-08-25T17:09:30;26.20;95.00
45237;DHT22;30973;51.442;3.580;2022-08-25T17:11:58;26.20;95.00
45237;DHT22;30973;51.442;3.580;2022-08-25T17:14:25;26.10;95.00
45237;DHT22;30973;51.442;3.580;2022-08-25T17:16:52;26.10;95.00
45237;DHT22;30973;51.442;3.580;2022-08-25T17:19:21;26.10;95.10
45237;DHT22;30973;51.442;3.580;2022-08-25T17:21:51;26.10;95.40
45237;DHT22;30973;51.442;3.580;2022-08-25T17:24:21;26.00;95.10
45237;DHT22;30973;51.442;3.580;2022-08-25T17:26:58;26.00;95.20
45237;DHT22;30973;51.442;3.580;2022-08-25T17:29:27;25.90;95.10
45237;DHT22;30973;51.442;3.580;2022-08-25T17:31:54;26.00;95.10
45237;DHT22;30973;51.442;3.580;2022-08-25T17:34:22;25.90;95.00
45237;DHT22;30973;51.442;3.580;2022-08-25T17:36:50;25.90;95.10
45237;DHT22;30973;51.442;3.580;2022-08-25T17:39:18;25.90;95.10
45237;DHT22;30973;51.442;3.580;2022-08-25T17:41:49;25.80;95.20
45237;DHT22;30973;51.442;3.580;2022-08-25T17:44:17;25.80;95.10
45237;DHT22;30973;51.442;3.580;2022-08-25T17:46:45;25.70;95.20
45237;DHT22;30973;51.442;3.580;2022-08-25T17:49:15;25.70;95.10
45237;DHT22;30973;51.442;3.580;2022-08-25T17:51:42;25.70;95.20
45237;DHT22;30973;51.442;3.580;2022-08-25T17:54:11;25.60;95.30
45237;DHT22;30973;51.442;3.580;2022-08-25T17:56:38;25.60;95.50
45237;DHT22;30973;51.442;3.580;2022-08-25T17:59:05;25.50;95.60
45237;DHT22;30973;51.442;3.580;2022-08-25T18:01:35;25.50;95.60
45237;DHT22;30973;51.442;3.580;2022-08-25T18:04:09;25.40;95.90
45237;DHT22;30973;51.442;3.580;2022-08-25T18:06:45;25.40;95.80
45237;DHT22;30973;51.442;3.580;2022-08-25T18:09:15;25.40;95.90
45237;DHT22;30973;51.442;3.580;2022-08-25T18:11:44;25.40;96.40
45237;DHT22;30973;51.442;3.580;2022-08-25T18:14:12;25.30;96.20
45237;DHT22;30973;51.442;3.580;2022-08-25T18:16:40;25.30;96.00
45237;DHT22;30973;51.442;3.580;2022-08-25T18:19:08;25.30;96.20
45237;DHT22;30973;51.442;3.580;2022-08-25T18:21:38;25.30;96.10
45237;DHT22;30973;51.442;3.580;2022-08-25T18:24:06;25.30;96.20
45237;DHT22;30973;51.442;3.580;2022-08-25T18:26:34;25.30;96.30
45237;DHT22;30973;51.442;3.580;2022-08-25T18:29:01;25.20;96.50
45237;DHT22;30973;51.442;3.580;2022-08-25T18:31:29;25.20;96.40
45237;DHT22;30973;51.442;3.580;2022-08-25T18:33:58;25.20;96.60
45237;DHT22;30973;51.442;3.580;2022-08-25T18:36:25;25.10;96.60
45237;DHT22;30973;51.442;3.580;2022-08-25T18:38:52;25.10;96.50
45237;DHT22;30973;51.442;3.580;2022-08-25T18:41:40;25.00;97.00
45237;DHT22;30973;51.442;3.580;2022-08-25T18:44:08;25.00;96.80
45237;DHT22;30973;51.442;3.580;2022-08-25T18:46:37;25.00;97.10
45237;DHT22;30973;51.442;3.580;2022-08-25T18:49:06;24.90;97.20
45237;DHT22;30973;51.442;3.580;2022-08-25T18:51:34;24.90;97.20
45237;DHT22;30973;51.442;3.580;2022-08-25T18:54:02;24.90;97.60
45237;DHT22;30973;51.442;3.580;2022-08-25T18:56:30;24.90;97.60
45237;DHT22;30973;51.442;3.580;2022-08-25T18:58:57;24.80;97.50
45237;DHT22;30973;51.442;3.580;2022-08-25T19:01:24;24.80;97.60
45237;DHT22;30973;51.442;3.580;2022-08-25T19:03:52;24.70;97.70
45237;DHT22;30973;51.442;3.580;2022-08-25T19:06:19;24.70;98.10
45237;DHT22;30973;51.442;3.580;2022-08-25T19:08:47;24.70;98.10
45237;DHT22;30973;51.442;3.580;2022-08-25T19:11:15;24.70;98.20
45237;DHT22;30973;51.442;3.580;2022-08-25T19:13:43;24.70;98.20
45237;DHT22;30973;51.442;3.580;2022-08-25T19:16:16;24.70;98.40
45237;DHT22;30973;51.442;3.580;2022-08-25T19:18:47;24.60;98.50
45237;DHT22;30973;51.442;3.580;2022-08-25T19:21:18;24.60;98.50
45237;DHT22;30973;51.442;3.580;2022-08-25T19:23:50;24.60;98.50
45237;DHT22;30973;51.442;3.580;2022-08-25T19:26:18;24.60;98.50
45237;DHT22;30973;51.442;3.580;2022-08-25T19:28:48;24.60;98.50
45237;DHT22;30973;51.442;3.580;2022-08-25T19:31:17;24.50;98.40
45237;DHT22;30973;51.442;3.580;2022-08-25T19:33:46;24.50;98.60
45237;DHT22;30973;51.442;3.580;2022-08-25T19:36:15;24.50;98.80
45237;DHT22;30973;51.442;3.580;2022-08-25T19:38:43;24.50;98.70
45237;DHT22;30973;51.442;3.580;2022-08-25T19:41:11;24.50;98.80
45237;DHT22;30973;51.442;3.580;2022-08-25T19:43:45;24.40;98.70
45237;DHT22;30973;51.442;3.580;2022-08-25T19:46:31;24.40;98.80
45237;DHT22;30973;51.442;3.580;2022-08-25T19:51:46;24.30;98.70
45237;DHT22;30973;51.442;3.580;2022-08-25T19:54:30;24.30;98.70
45237;DHT22;30973;51.442;3.580;2022-08-25T19:56:58;24.30;98.60
45237;DHT22;30973;51.442;3.580;2022-08-25T19:59:29;24.30;98.90
45237;DHT22;30973;51.442;3.580;2022-08-25T20:02:12;24.20;98.70
45237;DHT22;30973;51.442;3.580;2022-08-25T20:04:47;24.10;98.50
45237;DHT22;30973;51.442;3.580;2022-08-25T20:07:18;24.20;98.60
45237;DHT22;30973;51.442;3.580;2022-08-25T20:09:45;24.10;98.70
45237;DHT22;30973;51.442;3.580;2022-08-25T20:12:13;24.00;98.70
45237;DHT22;30973;51.442;3.580;2022-08-25T20:14:41;24.00;98.70
45237;DHT22;30973;51.442;3.580;2022-08-25T20:17:09;24.00;98.70
45237;DHT22;30973;51.442;3.580;2022-08-25T20:19:53;23.90;98.50
45237;DHT22;30973;51.442;3.580;2022-08-25T20:22:23;23.90;98.50